sensor_id;sensor_type;location;lat;lon;timestamp;pressure;altitude;pressure_sealevel;temperature;humidity
79584;BME280;69053;57.338;18.700;2024-01-15T00:00:15;98316.59;;;3.50;70.66
79584;BME280;69053;57.338;18.700;2024-01-15T00:03:15;98311.00;;;3.52;70.71
79584;BME280;69053;57.338;18.700;2024-01-15T00:06:16;98301.03;;;3.52;70.62
79584;BME280;69053;57.338;18.700;2024-01-15T00:09:16;98295.66;;;3.52;71.07
79584;BME280;69053;57.338;18.700;2024-01-15T00:12:16;98288.19;;;3.54;71.17
79584;BME280;69053;57.338;18.700;2024-01-15T00:15:17;98282.59;;;3.56;71.12
79584;BME280;69053;57.338;18.700;2024-01-15T00:18:17;98271.81;;;3.56;70.71
79584;BME280;69053;57.338;18.700;2024-01-15T00:21:18;98270.97;;;3.55;71.08
79584;BME280;69053;57.338;18.700;2024-01-15T00:24:18;98255.66;;;3.56;70.97
79584;BME280;69053;57.338;18.700;2024-01-15T00:27:19;98249.22;;;3.57;70.94
79584;BME280;69053;57.338;18.700;2024-01-15T00:30:20;98243.03;;;3.56;71.28
79584;BME280;69053;57.338;18.700;2024-01-15T00:33:20;98235.53;;;3.59;71.40
79584;BME280;69053;57.338;18.700;2024-01-15T00:36:20;98238.00;;;3.60;71.11
79584;BME280;69053;57.338;18.700;2024-01-15T00:39:21;98225.13;;;3.62;70.93
79584;BME280;69053;57.338;18.700;2024-01-15T00:42:21;98221.38;;;3.63;71.37
79584;BME280;69053;57.338;18.700;2024-01-15T00:45:22;98209.78;;;3.63;71.28
79584;BME280;69053;57.338;18.700;2024-01-15T00:48:22;98206.28;;;3.62;71.46
79584;BME280;69053;57.338;18.700;2024-01-15T00:51:23;98201.47;;;3.64;71.44
79584;BME280;69053;57.338;18.700;2024-01-15T00:54:23;98189.44;;;3.67;71.43
79584;BME280;69053;57.338;18.700;2024-01-15T00:57:24;98188.13;;;3.69;71.66
79584;BME280;69053;57.338;18.700;2024-01-15T01:00:24;98178.78;;;3.72;71.20
79584;BME280;69053;57.338;18.700;2024-01-15T01:03:24;98174.22;;;3.72;71.79
79584;BME280;69053;57.338;18.700;2024-01-15T01:06:25;98164.84;;;3.75;71.26
79584;BME280;69053;57.338;18.700;2024-01-15T01:09:25;98160.63;;;3.79;71.16
79584;BME280;69053;57.338;18.700;2024-01-15T01:12:29;98163.91;;;3.81;71.15
79584;BME280;69053;57.338;18.700;2024-01-15T01:15:30;98153.72;;;3.83;71.55
79584;BME280;69053;57.338;18.700;2024-01-15T01:18:30;98153.72;;;3.83;71.46
79584;BME280;69053;57.338;18.700;2024-01-15T01:21:31;98148.09;;;3.85;71.48
79584;BME280;69053;57.338;18.700;2024-01-15T01:24:31;98145.41;;;3.85;71.30
79584;BME280;69053;57.338;18.700;2024-01-15T01:27:32;98137.53;;;4.07;70.59
79584;BME280;69053;57.338;18.700;2024-01-15T01:30:32;98127.44;;;4.14;70.27
79584;BME280;69053;57.338;18.700;2024-01-15T01:33:33;98121.81;;;4.16;69.84
79584;BME280;69053;57.338;18.700;2024-01-15T01:36:33;98115.13;;;4.18;70.36
79584;BME280;69053;57.338;18.700;2024-01-15T01:39:34;98108.69;;;4.19;70.13
79584;BME280;69053;57.338;18.700;2024-01-15T01:42:34;98104.13;;;4.20;69.75
79584;BME280;69053;57.338;18.700;2024-01-15T01:45:35;98103.06;;;4.21;69.85
79584;BME280;69053;57.338;18.700;2024-01-15T01:48:35;98089.59;;;4.21;70.05
79584;BME280;69053;57.338;18.700;2024-01-15T01:51:36;98094.72;;;4.22;69.80
79584;BME280;69053;57.338;18.700;2024-01-15T01:54:40;98094.50;;;4.24;69.96
79584;BME280;69053;57.338;18.700;2024-01-15T01:57:41;98078.31;;;4.24;70.20
79584;BME280;69053;57.338;18.700;2024-01-15T02:00:43;98074.81;;;4.23;69.80
79584;BME280;69053;57.338;18.700;2024-01-15T02:03:43;98074.00;;;4.23;69.68
79584;BME280;69053;57.338;18.700;2024-01-15T02:06:44;98067.22;;;4.20;70.17
79584;BME280;69053;57.338;18.700;2024-01-15T02:09:44;98066.97;;;4.22;70.00
79584;BME280;69053;57.338;18.700;2024-01-15T02:12:45;98061.59;;;4.22;70.03
79584;BME280;69053;57.338;18.700;2024-01-15T02:15:48;98055.41;;;4.21;70.03
79584;BME280;69053;57.338;18.700;2024-01-15T02:18:49;98052.69;;;4.21;69.80
79584;BME280;69053;57.338;18.700;2024-01-15T02:21:49;98047.31;;;4.21;69.84
79584;BME280;69053;57.338;18.700;2024-01-15T02:24:50;98045.66;;;4.20;70.12
79584;BME280;69053;57.338;18.700;2024-01-15T02:27:50;98044.63;;;4.21;70.11
79584;BME280;69053;57.338;18.700;2024-01-15T02:30:51;98037.81;;;4.19;70.21
79584;BME280;69053;57.338;18.700;2024-01-15T02:33:51;98020.59;;;4.20;70.46
79584;BME280;69053;57.338;18.700;2024-01-15T02:36:52;98008.97;;;4.19;70.14
79584;BME280;69053;57.338;18.700;2024-01-15T02:39:52;98007.13;;;4.20;70.25
79584;BME280;69053;57.338;18.700;2024-01-15T02:42:53;98004.91;;;4.17;70.61
79584;BME280;69053;57.338;18.700;2024-01-15T02:45:53;98007.84;;;4.15;70.40
79584;BME280;69053;57.338;18.700;2024-01-15T02:48:53;98004.91;;;4.17;70.29
79584;BME280;69053;57.338;18.700;2024-01-15T02:51:54;97994.28;;;4.10;70.35
79584;BME280;69053;57.338;18.700;2024-01-15T02:54:54;97992.41;;;4.10;70.45
79584;BME280;69053;57.338;18.700;2024-01-15T02:57:55;97980.81;;;4.10;70.70
79584;BME280;69053;57.338;18.700;2024-01-15T03:00:55;97985.47;;;4.15;70.80
79584;BME280;69053;57.338;18.700;2024-01-15T03:03:56;97977.97;;;4.17;70.78
79584;BME280;69053;57.338;18.700;2024-01-15T03:06:57;97975.84;;;4.19;70.41
79584;BME280;69053;57.338;18.700;2024-01-15T03:09:57;97974.19;;;4.18;70.46
79584;BME280;69053;57.338;18.700;2024-01-15T03:12:58;97965.53;;;4.16;70.94
79584;BME280;69053;57.338;18.700;2024-01-15T03:15:58;97968.34;;;4.21;70.39
79584;BME280;69053;57.338;18.700;2024-01-15T03:18:59;97957.31;;;4.22;70.60
79584;BME280;69053;57.338;18.700;2024-01-15T03:21:59;97963.50;;;4.23;70.58
79584;BME280;69053;57.338;18.700;2024-01-15T03:25:00;97958.63;;;4.20;70.36
79584;BME280;69053;57.338;18.700;2024-01-15T03:28:01;97956.75;;;4.20;70.75
79584;BME280;69053;57.338;18.700;2024-01-15T03:31:02;97945.16;;;4.20;70.75
79584;BME280;69053;57.338;18.700;2024-01-15T03:34:02;97940.81;;;4.19;70.24
79584;BME280;69053;57.338;18.700;2024-01-15T03:37:03;97939.16;;;4.18;70.51
79584;BME280;69053;57.338;18.700;2024-01-15T03:40:04;97944.09;;;4.21;70.40
79584;BME280;69053;57.338;18.700;2024-01-15T03:43:05;97928.16;;;4.19;70.44
79584;BME280;69053;57.338;18.700;2024-01-15T03:46:05;97927.09;;;4.20;70.58
79584;BME280;69053;57.338;18.700;2024-01-15T03:49:06;97923.38;;;4.21;70.58
79584;BME280;69053;57.338;18.700;2024-01-15T03:52:06;97925.69;;;4.18;70.31
79584;BME280;69053;57.338;18.700;2024-01-15T03:55:07;97916.00;;;4.17;70.33
79584;BME280;69053;57.338;18.700;2024-01-15T03:58:07;97919.03;;;4.20;70.53
79584;BME280;69053;57.338;18.700;2024-01-15T04:01:11;97913.97;;;4.24;70.21
79584;BME280;69053;57.338;18.700;2024-01-15T04:04:12;97920.16;;;4.24;70.18
79584;BME280;69053;57.338;18.700;2024-01-15T04:07:12;97907.53;;;4.25;70.34
79584;BME280;69053;57.338;18.700;2024-01-15T04:10:13;97900.50;;;4.24;70.32
79584;BME280;69053;57.338;18.700;2024-01-15T04:13:13;97898.28;;;4.21;70.44
79584;BME280;69053;57.338;18.700;2024-01-15T04:16:14;97897.47;;;4.20;70.83
79584;BME280;69053;57.338;18.700;2024-01-15T04:19:14;97896.16;;;4.23;70.76
79584;BME280;69053;57.338;18.700;2024-01-15T04:22:14;97883.75;;;4.22;70.21
79584;BME280;69053;57.338;18.700;2024-01-15T04:25:15;97891.13;;;4.26;70.38
79584;BME280;69053;57.338;18.700;2024-01-15T04:28:15;97885.72;;;4.26;70.65
79584;BME280;69053;57.338;18.700;2024-01-15T04:31:25;97888.44;;;4.26;70.41
79584;BME280;69053;57.338;18.700;2024-01-15T04:34:27;97882.44;;;4.24;70.28
79584;BME280;69053;57.338;18.700;2024-01-15T04:37:27;97879.75;;;4.24;70.62
79584;BME280;69053;57.338;18.700;2024-01-15T04:40:28;97872.41;;;4.20;70.37
79584;BME280;69053;57.338;18.700;2024-01-15T04:43:28;97867.28;;;4.18;70.59
79584;BME280;69053;57.338;18.700;2024-01-15T04:46:28;97869.72;;;4.20;70.49
79584;BME280;69053;57.338;18.700;2024-01-15T04:49:29;97865.13;;;4.20;70.36
79584;BME280;69053;57.338;18.700;2024-01-15T04:52:30;97861.63;;;4.20;69.98
79584;BME280;69053;57.338;18.700;2024-01-15T04:55:30;97855.66;;;4.18;70.68
79584;BME280;69053;57.338;18.700;2024-01-15T04:58:30;97856.25;;;4.20;70.06
79584;BME280;69053;57.338;18.700;2024-01-15T05:01:32;97849.78;;;4.21;70.26
79584;BME280;69053;57.338;18.700;2024-01-15T05:04:33;97846.84;;;4.22;70.16
79584;BME280;69053;57.338;18.700;2024-01-15T05:07:33;97841.22;;;4.24;70.36
79584;BME280;69053;57.338;18.700;2024-01-15T05:10:34;97836.63;;;4.24;70.37
79584;BME280;69053;57.338;18.700;2024-01-15T05:13:34;97840.16;;;4.25;69.80
79584;BME280;69053;57.338;18.700;2024-01-15T05:16:37;97827.75;;;4.24;70.00
79584;BME280;69053;57.338;18.700;2024-01-15T05:19:38;97828.56;;;4.24;70.16
79584;BME280;69053;57.338;18.700;2024-01-15T05:22:38;97826.94;;;4.23;70.28
79584;BME280;69053;57.338;18.700;2024-01-15T05:25:38;97827.50;;;4.25;70.35
79584;BME280;69053;57.338;18.700;2024-01-15T05:28:41;97822.91;;;4.26;70.09
79584;BME280;69053;57.338;18.700;2024-01-15T05:31:42;97825.63;;;4.26;70.04
79584;BME280;69053;57.338;18.700;2024-01-15T05:34:43;97824.56;;;4.27;70.24
79584;BME280;69053;57.338;18.700;2024-01-15T05:37:45;97831.00;;;4.26;70.34
79584;BME280;69053;57.338;18.700;2024-01-15T05:40:45;97821.06;;;4.26;70.40
79584;BME280;69053;57.338;18.700;2024-01-15T05:43:46;97827.25;;;4.27;70.28
79584;BME280;69053;57.338;18.700;2024-01-15T05:46:46;97818.09;;;4.28;70.06
79584;BME280;69053;57.338;18.700;2024-01-15T05:49:47;97813.53;;;4.28;69.95
79584;BME280;69053;57.338;18.700;2024-01-15T05:52:47;97823.47;;;4.28;70.23
79584;BME280;69053;57.338;18.700;2024-01-15T05:55:48;97819.75;;;4.29;70.17
79584;BME280;69053;57.338;18.700;2024-01-15T05:58:48;97818.94;;;4.28;69.84
79584;BME280;69053;57.338;18.700;2024-01-15T06:01:49;97817.28;;;4.27;70.04
79584;BME280;69053;57.338;18.700;2024-01-15T06:04:49;97815.06;;;4.24;70.14
79584;BME280;69053;57.338;18.700;2024-01-15T06:07:49;97813.22;;;4.25;70.38
79584;BME280;69053;57.338;18.700;2024-01-15T06:10:50;97802.44;;;4.25;70.08
79584;BME280;69053;57.338;18.700;2024-01-15T06:13:50;97818.84;;;4.23;70.32
79584;BME280;69053;57.338;18.700;2024-01-15T06:16:52;97817.94;;;4.18;70.17
79584;BME280;69053;57.338;18.700;2024-01-15T06:19:52;97814.34;;;4.12;70.24
79584;BME280;69053;57.338;18.700;2024-01-15T06:22:53;97818.84;;;4.06;70.64
79584;BME280;69053;57.338;18.700;2024-01-15T06:25:53;97811.25;;;4.03;70.24
79584;BME280;69053;57.338;18.700;2024-01-15T06:28:54;97817.97;;;4.01;70.90
79584;BME280;69053;57.338;18.700;2024-01-15T06:31:54;97822.84;;;4.04;70.40
79584;BME280;69053;57.338;18.700;2024-01-15T06:34:55;97819.81;;;4.00;70.32
79584;BME280;69053;57.338;18.700;2024-01-15T06:37:55;97822.50;;;4.00;70.61
79584;BME280;69053;57.338;18.700;2024-01-15T06:40:55;97819.00;;;4.00;70.67
79584;BME280;69053;57.338;18.700;2024-01-15T06:43:56;97816.66;;;4.03;70.52
79584;BME280;69053;57.338;18.700;2024-01-15T06:46:57;97815.84;;;4.03;70.27
79584;BME280;69053;57.338;18.700;2024-01-15T06:50:02;97812.31;;;4.02;70.32
79584;BME280;69053;57.338;18.700;2024-01-15T06:53:03;97813.06;;;3.98;70.40
79584;BME280;69053;57.338;18.700;2024-01-15T06:56:03;97808.72;;;3.97;70.78
79584;BME280;69053;57.338;18.700;2024-01-15T06:59:04;97808.97;;;3.95;70.68
79584;BME280;69053;57.338;18.700;2024-01-15T07:02:05;97814.59;;;3.93;70.35
79584;BME280;69053;57.338;18.700;2024-01-15T07:05:05;97809.47;;;3.92;70.60
79584;BME280;69053;57.338;18.700;2024-01-15T07:08:06;97806.19;;;3.90;70.62
79584;BME280;69053;57.338;18.700;2024-01-15T07:11:07;97811.09;;;3.93;71.02
79584;BME280;69053;57.338;18.700;2024-01-15T07:14:08;97805.22;;;3.96;70.57
79584;BME280;69053;57.338;18.700;2024-01-15T07:17:08;97804.41;;;3.96;70.84
79584;BME280;69053;57.338;18.700;2024-01-15T07:20:09;97799.03;;;3.96;70.52
79584;BME280;69053;57.338;18.700;2024-01-15T07:23:10;97795.75;;;3.93;70.32
79584;BME280;69053;57.338;18.700;2024-01-15T07:26:10;97795.19;;;3.91;70.60
79584;BME280;69053;57.338;18.700;2024-01-15T07:29:11;97799.75;;;3.91;70.40
79584;BME280;69053;57.338;18.700;2024-01-15T07:32:11;97800.81;;;3.90;70.43
79584;BME280;69053;57.338;18.700;2024-01-15T07:35:11;97796.75;;;3.87;70.04
79584;BME280;69053;57.338;18.700;2024-01-15T07:38:12;97806.09;;;3.85;70.07
79584;BME280;69053;57.338;18.700;2024-01-15T07:41:13;97804.41;;;3.79;70.43
79584;BME280;69053;57.338;18.700;2024-01-15T07:44:14;97816.13;;;3.72;70.50
79584;BME280;69053;57.338;18.700;2024-01-15T07:47:15;97808.06;;;3.72;70.44
79584;BME280;69053;57.338;18.700;2024-01-15T07:50:15;97811.91;;;3.77;70.36
79584;BME280;69053;57.338;18.700;2024-01-15T07:53:16;97805.22;;;3.79;70.20
79584;BME280;69053;57.338;18.700;2024-01-15T07:56:16;97803.56;;;3.78;70.10
79584;BME280;69053;57.338;18.700;2024-01-15T07:59:16;97803.66;;;3.66;70.39
79584;BME280;69053;57.338;18.700;2024-01-15T08:02:18;97801.53;;;3.68;70.73
79584;BME280;69053;57.338;18.700;2024-01-15T08:05:18;97810.41;;;3.69;70.57
79584;BME280;69053;57.338;18.700;2024-01-15T08:08:19;97809.94;;;3.72;70.33
79584;BME280;69053;57.338;18.700;2024-01-15T08:11:21;97813.03;;;3.81;70.50
79584;BME280;69053;57.338;18.700;2024-01-15T08:14:22;97808.31;;;3.88;70.12
79584;BME280;69053;57.338;18.700;2024-01-15T08:17:22;97813.22;;;3.91;70.59
79584;BME280;69053;57.338;18.700;2024-01-15T08:20:23;97808.00;;;4.01;70.03
79584;BME280;69053;57.338;18.700;2024-01-15T08:23:24;97798.84;;;4.02;69.80
79584;BME280;69053;57.338;18.700;2024-01-15T08:26:25;97794.28;;;4.03;69.74
79584;BME280;69053;57.338;18.700;2024-01-15T08:29:25;97800.47;;;4.03;70.04
79584;BME280;69053;57.338;18.700;2024-01-15T08:32:25;97800.00;;;4.06;69.70
79584;BME280;69053;57.338;18.700;2024-01-15T08:35:26;97807.84;;;4.08;70.08
79584;BME280;69053;57.338;18.700;2024-01-15T08:38:27;97800.00;;;4.06;69.79
79584;BME280;69053;57.338;18.700;2024-01-15T08:41:27;97798.34;;;4.05;70.13
79584;BME280;69053;57.338;18.700;2024-01-15T08:44:28;97797.53;;;4.05;69.63
79584;BME280;69053;57.338;18.700;2024-01-15T08:47:28;97791.34;;;4.04;69.83
79584;BME280;69053;57.338;18.700;2024-01-15T08:50:29;97792.56;;;4.13;69.96
79584;BME280;69053;57.338;18.700;2024-01-15T08:53:29;97789.06;;;4.13;69.74
79584;BME280;69053;57.338;18.700;2024-01-15T08:56:30;97789.88;;;4.13;69.19
79584;BME280;69053;57.338;18.700;2024-01-15T08:59:30;97795.91;;;4.21;69.16
79584;BME280;69053;57.338;18.700;2024-01-15T09:02:31;97792.16;;;4.22;69.30
79584;BME280;69053;57.338;18.700;2024-01-15T09:05:31;97789.53;;;4.27;69.58
79584;BME280;69053;57.338;18.700;2024-01-15T09:08:32;97795.66;;;4.22;68.72
79584;BME280;69053;57.338;18.700;2024-01-15T09:11:32;97793.84;;;4.28;69.10
79584;BME280;69053;57.338;18.700;2024-01-15T09:14:32;97794.50;;;4.35;68.74
79584;BME280;69053;57.338;18.700;2024-01-15T09:17:34;97792.72;;;4.24;68.94
79584;BME280;69053;57.338;18.700;2024-01-15T09:20:35;97794.44;;;4.30;69.29
79584;BME280;69053;57.338;18.700;2024-01-15T09:23:35;97794.44;;;4.30;68.90
79584;BME280;69053;57.338;18.700;2024-01-15T09:26:36;97790.00;;;4.41;68.72
79584;BME280;69053;57.338;18.700;2024-01-15T09:29:36;97789.81;;;4.47;68.70
79584;BME280;69053;57.338;18.700;2024-01-15T09:32:40;97788.41;;;4.62;68.54
79584;BME280;69053;57.338;18.700;2024-01-15T09:35:40;97786.09;;;4.93;67.57
79584;BME280;69053;57.338;18.700;2024-01-15T09:38:41;97781.31;;;5.00;66.92
79584;BME280;69053;57.338;18.700;2024-01-15T09:41:42;97781.44;;;5.10;66.58
79584;BME280;69053;57.338;18.700;2024-01-15T09:44:44;97777.47;;;5.18;66.33
79584;BME280;69053;57.338;18.700;2024-01-15T09:47:46;97769.69;;;5.21;66.21
79584;BME280;69053;57.338;18.700;2024-01-15T09:50:46;97779.31;;;5.39;66.23
79584;BME280;69053;57.338;18.700;2024-01-15T09:53:48;97785.31;;;5.47;65.40
79584;BME280;69053;57.338;18.700;2024-01-15T09:56:50;97777.81;;;5.49;65.55
79584;BME280;69053;57.338;18.700;2024-01-15T09:59:51;97780.84;;;5.57;65.23
79584;BME280;69053;57.338;18.700;2024-01-15T10:02:52;97776.41;;;5.73;65.28
79584;BME280;69053;57.338;18.700;2024-01-15T10:05:53;97785.94;;;5.86;64.70
79584;BME280;69053;57.338;18.700;2024-01-15T10:08:56;97783.78;;;5.83;64.69
79584;BME280;69053;57.338;18.700;2024-01-15T10:11:58;97782.19;;;5.87;64.05
79584;BME280;69053;57.338;18.700;2024-01-15T10:14:59;97773.22;;;5.81;64.16
79584;BME280;69053;57.338;18.700;2024-01-15T10:17:59;97781.97;;;5.94;64.12
79584;BME280;69053;57.338;18.700;2024-01-15T10:21:00;97777.28;;;6.11;64.15
79584;BME280;69053;57.338;18.700;2024-01-15T10:24:01;97782.50;;;6.23;63.90
79584;BME280;69053;57.338;18.700;2024-01-15T10:27:09;97784.72;;;6.31;62.86
79584;BME280;69053;57.338;18.700;2024-01-15T10:30:11;97782.81;;;6.32;62.71
79584;BME280;69053;57.338;18.700;2024-01-15T10:33:12;97776.94;;;6.40;62.77
79584;BME280;69053;57.338;18.700;2024-01-15T10:36:12;97775.03;;;6.41;62.37
79584;BME280;69053;57.338;18.700;2024-01-15T10:39:13;97785.81;;;6.35;62.48
79584;BME280;69053;57.338;18.700;2024-01-15T10:42:14;97787.63;;;6.25;62.89
79584;BME280;69053;57.338;18.700;2024-01-15T10:45:14;97793.06;;;6.30;63.16
79584;BME280;69053;57.338;18.700;2024-01-15T10:48:17;97794.97;;;6.29;62.89
79584;BME280;69053;57.338;18.700;2024-01-15T10:51:20;97786.03;;;6.29;63.25
79584;BME280;69053;57.338;18.700;2024-01-15T10:54:22;97788.59;;;6.51;63.52
79584;BME280;69053;57.338;18.700;2024-01-15T10:57:23;97795.13;;;6.55;62.40
79584;BME280;69053;57.338;18.700;2024-01-15T11:00:26;97789.72;;;6.60;62.89
79584;BME280;69053;57.338;18.700;2024-01-15T11:03:28;97786.50;;;6.63;62.90
79584;BME280;69053;57.338;18.700;2024-01-15T11:06:41;97789.47;;;6.62;62.47
79584;BME280;69053;57.338;18.700;2024-01-15T11:09:42;97784.63;;;6.59;62.29
79584;BME280;69053;57.338;18.700;2024-01-15T11:12:42;97786.72;;;6.51;62.53
79584;BME280;69053;57.338;18.700;2024-01-15T11:16:06;97780.09;;;6.32;62.60
79584;BME280;69053;57.338;18.700;2024-01-15T11:19:07;97791.28;;;6.08;62.94
79584;BME280;69053;57.338;18.700;2024-01-15T11:22:09;97786.81;;;5.92;63.31
79584;BME280;69053;57.338;18.700;2024-01-15T11:25:14;97792.44;;;5.85;63.73
79584;BME280;69053;57.338;18.700;2024-01-15T11:28:46;97785.56;;;5.72;63.52
79584;BME280;69053;57.338;18.700;2024-01-15T11:34:54;97783.09;;;5.71;63.96
79584;BME280;69053;57.338;18.700;2024-01-15T11:37:58;97791.25;;;5.76;63.54
79584;BME280;69053;57.338;18.700;2024-01-15T11:40:58;97793.16;;;5.75;63.34
79584;BME280;69053;57.338;18.700;2024-01-15T11:44:00;97790.78;;;5.84;63.49
79584;BME280;69053;57.338;18.700;2024-01-15T11:47:02;97788.69;;;5.91;63.58
79584;BME280;69053;57.338;18.700;2024-01-15T11:50:03;97794.41;;;5.62;63.27
79584;BME280;69053;57.338;18.700;2024-01-15T11:53:15;97794.75;;;5.44;64.36
79584;BME280;69053;57.338;18.700;2024-01-15T11:56:16;97807.84;;;5.30;64.12
79584;BME280;69053;57.338;18.700;2024-01-15T11:59:18;97799.75;;;5.08;64.33
79584;BME280;69053;57.338;18.700;2024-01-15T12:02:18;97793.00;;;5.05;64.46
79584;BME280;69053;57.338;18.700;2024-01-15T12:05:20;97798.13;;;5.07;64.77
79584;BME280;69053;57.338;18.700;2024-01-15T12:08:22;97798.00;;;4.97;64.96
79584;BME280;69053;57.338;18.700;2024-01-15T12:11:24;97800.47;;;4.76;64.83
79584;BME280;69053;57.338;18.700;2024-01-15T12:14:26;97798.00;;;4.53;64.49
79584;BME280;69053;57.338;18.700;2024-01-15T12:17:29;97801.34;;;4.43;65.22
79584;BME280;69053;57.338;18.700;2024-01-15T12:20:30;97796.19;;;4.41;65.05
79584;BME280;69053;57.338;18.700;2024-01-15T12:23:31;97797.69;;;4.32;65.59
79584;BME280;69053;57.338;18.700;2024-01-15T12:26:32;97794.38;;;4.25;65.35
79584;BME280;69053;57.338;18.700;2024-01-15T12:29:32;97797.22;;;3.84;65.51
79584;BME280;69053;57.338;18.700;2024-01-15T12:32:34;97787.78;;;3.82;65.95
79584;BME280;69053;57.338;18.700;2024-01-15T12:35:34;97790.28;;;3.71;66.55
79584;BME280;69053;57.338;18.700;2024-01-15T12:38:35;97791.94;;;3.27;67.61
79584;BME280;69053;57.338;18.700;2024-01-15T12:41:35;97788.72;;;3.30;67.63
79584;BME280;69053;57.338;18.700;2024-01-15T12:44:36;97793.31;;;3.29;67.39
79584;BME280;69053;57.338;18.700;2024-01-15T12:47:40;97798.19;;;3.04;68.20
79584;BME280;69053;57.338;18.700;2024-01-15T12:50:42;97806.00;;;3.17;67.55
79584;BME280;69053;57.338;18.700;2024-01-15T12:53:43;97809.97;;;3.14;67.29
79584;BME280;69053;57.338;18.700;2024-01-15T12:56:43;97808.34;;;3.13;67.49
79584;BME280;69053;57.338;18.700;2024-01-15T12:59:44;97806.38;;;2.97;67.96
79584;BME280;69053;57.338;18.700;2024-01-15T13:02:45;97837.63;;;2.98;67.09
79584;BME280;69053;57.338;18.700;2024-01-15T13:05:46;97833.09;;;2.75;67.82
79584;BME280;69053;57.338;18.700;2024-01-15T13:08:46;97823.53;;;2.55;68.42
79584;BME280;69053;57.338;18.700;2024-01-15T13:11:47;97838.28;;;2.41;68.89
79584;BME280;69053;57.338;18.700;2024-01-15T13:14:48;97840.97;;;2.29;68.90
79584;BME280;69053;57.338;18.700;2024-01-15T13:17:48;97849.47;;;2.26;68.90
79584;BME280;69053;57.338;18.700;2024-01-15T13:20:49;97847.38;;;2.28;68.83
79584;BME280;69053;57.338;18.700;2024-01-15T13:23:50;97857.88;;;2.30;69.10
79584;BME280;69053;57.338;18.700;2024-01-15T13:26:50;97873.31;;;1.80;70.55
79584;BME280;69053;57.338;18.700;2024-01-15T13:29:51;97870.91;;;1.48;71.49
79584;BME280;69053;57.338;18.700;2024-01-15T13:32:51;97878.41;;;1.58;71.61
79584;BME280;69053;57.338;18.700;2024-01-15T13:35:52;97883.88;;;1.52;71.91
79584;BME280;69053;57.338;18.700;2024-01-15T13:38:53;97887.59;;;1.50;71.50
79584;BME280;69053;57.338;18.700;2024-01-15T13:41:54;97886.78;;;1.31;72.41
79584;BME280;69053;57.338;18.700;2024-01-15T13:44:56;97902.81;;;1.38;72.56
79584;BME280;69053;57.338;18.700;2024-01-15T13:47:56;97911.81;;;1.25;72.55
79584;BME280;69053;57.338;18.700;2024-01-15T13:50:57;97914.00;;;1.17;73.58
79584;BME280;69053;57.338;18.700;2024-01-15T13:53:58;97903.44;;;1.03;72.90
79584;BME280;69053;57.338;18.700;2024-01-15T13:56:58;97918.06;;;0.82;73.38
79584;BME280;69053;57.338;18.700;2024-01-15T13:59:59;97921.44;;;0.96;73.04
79584;BME280;69053;57.338;18.700;2024-01-15T14:03:00;97931.78;;;1.11;72.96
79584;BME280;69053;57.338;18.700;2024-01-15T14:06:00;97943.25;;;1.00;72.46
79584;BME280;69053;57.338;18.700;2024-01-15T14:09:03;97944.81;;;0.89;72.05
79584;BME280;69053;57.338;18.700;2024-01-15T14:12:05;97947.94;;;0.86;73.14
79584;BME280;69053;57.338;18.700;2024-01-15T14:15:06;97948.66;;;0.74;72.68
79584;BME280;69053;57.338;18.700;2024-01-15T14:18:07;97953.22;;;0.49;73.75
79584;BME280;69053;57.338;18.700;2024-01-15T14:21:07;97979.84;;;0.44;73.02
79584;BME280;69053;57.338;18.700;2024-01-15T14:24:08;97971.16;;;0.48;73.33
79584;BME280;69053;57.338;18.700;2024-01-15T14:27:09;97978.91;;;0.56;72.38
79584;BME280;69053;57.338;18.700;2024-01-15T14:30:10;97993.47;;;0.67;71.85
79584;BME280;69053;57.338;18.700;2024-01-15T14:33:13;97986.78;;;0.51;71.83
79584;BME280;69053;57.338;18.700;2024-01-15T14:36:13;98014.91;;;0.35;72.82
79584;BME280;69053;57.338;18.700;2024-01-15T14:39:14;98001.25;;;0.44;72.40
79584;BME280;69053;57.338;18.700;2024-01-15T14:42:14;98016.56;;;0.36;71.96
79584;BME280;69053;57.338;18.700;2024-01-15T14:45:14;98017.41;;;0.30;71.93
79584;BME280;69053;57.338;18.700;2024-01-15T14:48:15;98030.22;;;0.28;72.06
79584;BME280;69053;57.338;18.700;2024-01-15T14:51:15;98026.38;;;0.43;71.75
79584;BME280;69053;57.338;18.700;2024-01-15T14:54:17;98048.75;;;0.30;71.52
79584;BME280;69053;57.338;18.700;2024-01-15T14:57:17;98055.44;;;0.07;71.57
79584;BME280;69053;57.338;18.700;2024-01-15T15:00:18;98066.50;;;0.24;71.58
79584;BME280;69053;57.338;18.700;2024-01-15T15:03:18;98067.06;;;0.33;71.11
79584;BME280;69053;57.338;18.700;2024-01-15T15:06:19;98075.69;;;0.35;70.58
79584;BME280;69053;57.338;18.700;2024-01-15T15:09:21;98076.16;;;0.25;70.48
79584;BME280;69053;57.338;18.700;2024-01-15T15:12:21;98085.22;;;0.24;70.73
79584;BME280;69053;57.338;18.700;2024-01-15T15:15:22;98092.03;;;0.20;70.18
79584;BME280;69053;57.338;18.700;2024-01-15T15:18:22;98102.69;;;-0.12;70.40
79584;BME280;69053;57.338;18.700;2024-01-15T15:21:23;98100.25;;;-0.33;72.04
79584;BME280;69053;57.338;18.700;2024-01-15T15:24:23;98132.38;;;-0.47;72.15
79584;BME280;69053;57.338;18.700;2024-01-15T15:27:24;98144.53;;;-0.44;71.85
79584;BME280;69053;57.338;18.700;2024-01-15T15:30:25;98139.41;;;-0.66;72.21
79584;BME280;69053;57.338;18.700;2024-01-15T15:33:26;98147.81;;;-0.69;73.15
79584;BME280;69053;57.338;18.700;2024-01-15T15:36:26;98154.19;;;-0.43;72.00
79584;BME280;69053;57.338;18.700;2024-01-15T15:39:27;98163.66;;;-0.41;71.68
79584;BME280;69053;57.338;18.700;2024-01-15T15:42:27;98158.91;;;-0.39;71.57
79584;BME280;69053;57.338;18.700;2024-01-15T15:45:28;98182.78;;;-0.37;71.43
79584;BME280;69053;57.338;18.700;2024-01-15T15:48:28;98168.00;;;-0.73;72.52
79584;BME280;69053;57.338;18.700;2024-01-15T15:51:28;98184.25;;;-0.48;71.79
79584;BME280;69053;57.338;18.700;2024-01-15T15:54:29;98189.59;;;-0.48;71.79
79584;BME280;69053;57.338;18.700;2024-01-15T15:57:29;98196.16;;;-0.44;71.16
79584;BME280;69053;57.338;18.700;2024-01-15T16:00:31;98213.44;;;-0.66;72.15